Time;durP1;ratioP1;P1;durP2;ratioP2;P2;SDS_P1;SDS_P2;PMS_P1;PMS_P2;Temp;Humidity;BMP_temperature;BMP_pressure;BME280_temperature;BME280_humidity;BME280_pressure;Samples;Min_cycle;Max_cycle;Signal;HPM_P1;HPM_P2
2024/03/03 00:00:24;;;;;;;8.77;5.82;;;9.50;99.90;;;;;;5118069;27;20103;-62
2024/03/03 00:02:53;;;;;;;13.82;5.50;;;9.50;99.90;;;;;;5121868;27;20050;-62
2024/03/03 00:05:19;;;;;;;6.30;5.53;;;9.50;99.90;;;;;;5123971;27;20087;-61
2024/03/03 00:07:45;;;;;;;8.85;5.82;;;9.50;99.90;;;;;;5117417;27;20493;-61
2024/03/03 00:10:11;;;;;;;7.90;6.20;;;9.50;99.90;;;;;;5117100;27;20367;-61
2024/03/03 00:12:36;;;;;;;11.23;6.55;;;9.50;99.90;;;;;;5114685;27;20383;-62
2024/03/03 00:15:02;;;;;;;9.02;5.68;;;9.50;99.90;;;;;;5120784;27;20386;-62
2024/03/03 00:17:28;;;;;;;7.88;6.13;;;9.60;99.90;;;;;;5113562;27;20111;-62
2024/03/03 00:19:54;;;;;;;7.88;5.95;;;9.60;99.90;;;;;;5119365;27;20049;-61
2024/03/03 00:22:20;;;;;;;7.88;6.38;;;9.60;99.90;;;;;;5111418;27;20400;-62
2024/03/03 00:24:45;;;;;;;8.80;5.93;;;9.60;99.90;;;;;;5116035;27;20105;-61
2024/03/03 00:27:12;;;;;;;8.63;5.70;;;9.60;99.90;;;;;;5117354;27;20095;-62
2024/03/03 00:29:38;;;;;;;9.27;6.40;;;9.60;99.90;;;;;;5116327;27;20389;-61
2024/03/03 00:32:04;;;;;;;9.88;6.60;;;9.60;99.90;;;;;;5114909;27;20039;-62
2024/03/03 00:34:29;;;;;;;7.82;5.60;;;9.60;99.90;;;;;;5121253;27;20582;-62
2024/03/03 00:36:55;;;;;;;10.35;6.95;;;9.70;99.90;;;;;;5125723;27;20039;-62
2024/03/03 00:39:21;;;;;;;9.43;6.57;;;9.70;99.90;;;;;;5105712;27;20050;-62
2024/03/03 00:41:47;;;;;;;10.20;6.68;;;9.70;99.90;;;;;;5113072;27;20039;-62
2024/03/03 00:44:13;;;;;;;9.82;6.25;;;9.70;99.90;;;;;;5110503;27;20039;-62
2024/03/03 00:46:39;;;;;;;10.95;6.80;;;9.70;99.90;;;;;;5121305;27;20027;-62
2024/03/03 00:49:05;;;;;;;9.23;6.20;;;9.80;99.90;;;;;;5118668;27;20077;-62
2024/03/03 00:51:31;;;;;;;9.13;7.18;;;9.70;99.90;;;;;;5119993;27;20143;-62
2024/03/03 00:53:56;;;;;;;9.13;6.88;;;9.80;99.90;;;;;;5117038;27;20047;-62
2024/03/03 00:56:22;;;;;;;9.82;7.43;;;9.80;99.90;;;;;;5117729;27;20108;-62
2024/03/03 00:58:48;;;;;;;10.68;7.72;;;9.80;99.90;;;;;;5122765;27;20090;-62
2024/03/03 01:01:15;;;;;;;12.95;7.47;;;9.80;99.90;;;;;;5123171;27;20118;-62
2024/03/03 01:03:41;;;;;;;10.95;7.57;;;9.80;99.90;;;;;;5125807;27;20131;-62
2024/03/03 01:06:06;;;;;;;11.95;8.40;;;9.90;99.90;;;;;;5134392;27;20051;-62
2024/03/03 01:08:32;;;;;;;9.98;6.90;;;9.90;99.90;;;;;;5122805;27;20038;-62
2024/03/03 01:10:58;;;;;;;12.07;8.07;;;9.90;99.90;;;;;;5117230;27;20634;-62
2024/03/03 01:13:24;;;;;;;10.30;8.13;;;9.90;99.90;;;;;;5124624;27;20031;-62
2024/03/03 01:15:50;;;;;;;10.45;7.70;;;9.90;99.90;;;;;;5122259;27;20554;-61
2024/03/03 01:18:16;;;;;;;11.73;7.72;;;9.90;99.90;;;;;;5124166;27;20805;-62
2024/03/03 01:20:41;;;;;;;10.60;8.05;;;9.90;99.90;;;;;;5123831;27;20526;-61
2024/03/03 01:23:08;;;;;;;12.48;8.60;;;9.90;99.90;;;;;;5123421;27;20172;-62
2024/03/03 01:25:34;;;;;;;10.73;8.05;;;9.90;99.90;;;;;;5121987;27;20142;-62
2024/03/03 01:28:00;;;;;;;10.05;8.25;;;10.00;99.90;;;;;;5124692;27;20604;-62
2024/03/03 01:30:25;;;;;;;11.43;7.63;;;10.00;99.90;;;;;;5124827;27;20071;-62
2024/03/03 01:32:51;;;;;;;11.38;8.15;;;10.00;99.90;;;;;;5124213;27;20432;-62
2024/03/03 01:35:17;;;;;;;12.50;8.43;;;10.00;99.90;;;;;;5126726;27;20122;-62
2024/03/03 01:37:43;;;;;;;13.05;8.25;;;10.00;99.90;;;;;;5126573;27;20122;-60
2024/03/03 01:40:10;;;;;;;13.32;7.90;;;10.00;99.90;;;;;;5125117;27;20043;-62
2024/03/03 01:42:36;;;;;;;12.35;8.35;;;10.00;99.90;;;;;;5125663;27;20457;-62
2024/03/03 01:45:02;;;;;;;9.45;7.90;;;10.10;99.90;;;;;;5122359;27;20355;-62
2024/03/03 01:47:27;;;;;;;10.55;7.93;;;10.00;99.90;;;;;;5127164;27;20410;-62
2024/03/03 01:49:55;;;;;;;12.10;8.88;;;10.00;99.90;;;;;;5132966;27;20035;-61
2024/03/03 01:52:25;;;;;;;12.07;9.00;;;10.00;99.90;;;;;;5117898;27;20071;-62
2024/03/03 01:54:51;;;;;;;12.32;9.50;;;10.00;99.90;;;;;;5123354;27;20042;-61
2024/03/03 01:57:20;;;;;;;11.10;8.32;;;10.10;99.90;;;;;;5123674;27;20117;-62
2024/03/03 01:59:48;;;;;;;12.98;8.80;;;10.00;99.90;;;;;;5119072;27;20093;-62
2024/03/03 02:02:14;;;;;;;12.00;8.32;;;10.00;99.90;;;;;;5120791;27;20038;-62
2024/03/03 02:04:41;;;;;;;12.43;8.82;;;10.00;99.90;;;;;;5126450;27;20137;-62
2024/03/03 02:07:08;;;;;;;11.27;8.77;;;10.00;99.90;;;;;;5124672;27;20039;-62
2024/03/03 02:09:34;;;;;;;14.57;8.55;;;10.00;99.90;;;;;;5112081;27;20172;-61
2024/03/03 02:12:00;;;;;;;11.90;8.95;;;10.00;99.90;;;;;;5126736;27;20031;-62
2024/03/03 02:14:26;;;;;;;10.45;8.30;;;9.90;99.90;;;;;;5119849;27;20060;-62
2024/03/03 02:16:52;;;;;;;12.00;8.95;;;9.90;99.90;;;;;;5118401;27;20043;-62
2024/03/03 02:19:18;;;;;;;13.02;9.55;;;9.90;99.90;;;;;;5113802;27;20054;-62
2024/03/03 02:21:44;;;;;;;12.95;8.77;;;9.90;99.90;;;;;;5122986;27;20132;-62
2024/03/03 02:24:09;;;;;;;11.85;9.15;;;9.90;99.90;;;;;;5117280;27;20655;-62
2024/03/03 02:26:37;;;;;;;12.23;8.95;;;9.90;99.90;;;;;;5122009;27;20463;-61
2024/03/03 02:29:03;;;;;;;16.05;9.82;;;9.90;99.90;;;;;;5119009;27;20118;-61
2024/03/03 02:31:32;;;;;;;13.30;8.90;;;9.90;99.90;;;;;;5118320;27;20035;-62
2024/03/03 02:33:58;;;;;;;13.98;9.73;;;9.90;99.90;;;;;;5113497;27;20103;-62
2024/03/03 02:36:25;;;;;;;13.57;9.25;;;9.90;99.90;;;;;;5125356;27;20047;-62
2024/03/03 02:38:51;;;;;;;14.23;8.88;;;9.90;99.90;;;;;;5120323;27;20505;-62
2024/03/03 02:41:17;;;;;;;12.75;9.30;;;9.90;99.90;;;;;;5115782;27;20047;-63
2024/03/03 02:43:42;;;;;;;11.93;9.38;;;9.90;99.90;;;;;;5116778;27;20054;-63
2024/03/03 02:46:08;;;;;;;12.70;9.55;;;9.90;99.90;;;;;;5112569;27;20039;-63
2024/03/03 02:48:34;;;;;;;12.65;8.95;;;9.90;99.90;;;;;;5121433;27;20482;-63
2024/03/03 02:51:00;;;;;;;11.75;8.77;;;9.90;99.90;;;;;;5116768;27;20330;-63
2024/03/03 02:53:26;;;;;;;13.15;9.15;;;9.90;99.90;;;;;;5123888;27;20046;-62
2024/03/03 02:55:51;;;;;;;14.63;9.20;;;9.90;99.90;;;;;;5112160;27;20077;-63
2024/03/03 02:58:17;;;;;;;13.05;9.18;;;9.90;99.90;;;;;;5118530;27;20042;-62
2024/03/03 03:00:43;;;;;;;12.73;9.15;;;9.90;99.90;;;;;;5112585;27;20236;-62
2024/03/03 03:03:09;;;;;;;14.18;9.38;;;9.90;99.90;;;;;;5110629;27;20513;-62
2024/03/03 03:05:35;;;;;;;13.77;9.90;;;9.90;99.90;;;;;;5121998;27;20039;-63
2024/03/03 03:08:01;;;;;;;18.35;9.02;;;9.90;99.90;;;;;;5124719;27;20145;-62
2024/03/03 03:10:26;;;;;;;10.95;8.38;;;9.90;99.90;;;;;;5121565;27;20192;-63
2024/03/03 03:12:54;;;;;;;12.85;8.88;;;9.80;99.90;;;;;;5125488;27;20293;-62
2024/03/03 03:15:19;;;;;;;14.07;9.45;;;9.80;99.90;;;;;;5113704;27;20406;-62
2024/03/03 03:17:46;;;;;;;13.18;9.25;;;9.90;99.90;;;;;;5116645;27;20035;-63
2024/03/03 03:20:12;;;;;;;12.82;8.90;;;9.90;99.90;;;;;;5121351;27;20042;-62
2024/03/03 03:22:37;;;;;;;13.45;8.88;;;9.80;99.90;;;;;;5123669;27;20440;-62
2024/03/03 03:25:04;;;;;;;13.85;8.90;;;9.90;99.90;;;;;;5120707;27;20096;-62
2024/03/03 03:27:31;;;;;;;16.95;9.00;;;9.90;99.90;;;;;;5122918;27;20535;-62
2024/03/03 03:29:57;;;;;;;12.63;9.02;;;9.80;99.90;;;;;;5116648;27;20051;-61
2024/03/03 03:32:22;;;;;;;14.18;9.15;;;9.80;99.90;;;;;;5119490;27;20031;-62
2024/03/03 03:34:48;;;;;;;14.45;9.45;;;9.80;99.90;;;;;;5123224;27;20413;-62
2024/03/03 03:37:14;;;;;;;15.13;10.05;;;9.80;99.90;;;;;;5129880;27;20062;-62
2024/03/03 03:39:40;;;;;;;14.60;9.50;;;9.80;99.90;;;;;;5121918;27;20039;-62
2024/03/03 03:42:05;;;;;;;12.85;8.95;;;9.70;99.90;;;;;;5118085;27;20062;-62
2024/03/03 03:44:31;;;;;;;11.05;8.48;;;9.70;99.90;;;;;;5107564;27;20550;-63
2024/03/03 03:46:57;;;;;;;11.05;8.82;;;9.70;99.90;;;;;;5119851;27;20477;-62
2024/03/03 03:49:23;;;;;;;14.32;9.57;;;9.60;99.90;;;;;;5122433;27;20274;-62
2024/03/03 03:51:49;;;;;;;12.23;8.40;;;9.60;99.90;;;;;;5113319;27;20402;-62
2024/03/03 03:54:15;;;;;;;12.68;8.63;;;9.60;99.90;;;;;;5116813;27;20122;-62
2024/03/03 03:56:40;;;;;;;11.98;8.65;;;9.50;99.90;;;;;;5107903;27;20127;-62
2024/03/03 03:59:06;;;;;;;15.13;9.35;;;9.50;99.90;;;;;;5118815;27;20047;-62
2024/03/03 04:01:32;;;;;;;13.20;8.68;;;9.50;99.90;;;;;;5117643;27;20119;-63
2024/03/03 04:03:58;;;;;;;10.85;8.77;;;9.50;99.90;;;;;;5111116;27;20370;-62
2024/03/03 04:06:26;;;;;;;13.45;9.15;;;9.50;99.90;;;;;;5121651;27;20089;-62
2024/03/03 04:08:52;;;;;;;10.32;8.98;;;9.50;99.90;;;;;;5116631;27;20478;-62
2024/03/03 04:11:22;;;;;;;12.52;8.93;;;9.50;99.90;;;;;;5110627;27;20081;-62
2024/03/03 04:13:48;;;;;;;10.73;8.38;;;9.50;99.90;;;;;;5123417;27;20035;-62
2024/03/03 04:16:14;;;;;;;12.50;8.73;;;9.50;99.90;;;;;;5121551;27;20066;-62
2024/03/03 04:18:40;;;;;;;11.25;8.30;;;9.50;99.90;;;;;;5122072;27;20039;-63
2024/03/03 04:21:06;;;;;;;12.98;9.27;;;9.50;99.90;;;;;;5111281;27;20051;-62
2024/03/03 04:23:32;;;;;;;12.23;9.02;;;9.50;99.90;;;;;;5121501;27;20122;-62
2024/03/03 04:25:58;;;;;;;12.75;9.05;;;9.50;99.90;;;;;;5119955;27;20039;-62
2024/03/03 04:28:24;;;;;;;11.63;8.88;;;9.40;99.90;;;;;;5109653;27;20273;-63
2024/03/03 04:30:50;;;;;;;12.40;9.30;;;9.30;99.90;;;;;;5105339;27;20208;-63
2024/03/03 04:33:16;;;;;;;11.23;8.27;;;9.30;99.90;;;;;;5117073;27;20717;-62
2024/03/03 04:35:42;;;;;;;13.32;8.65;;;9.20;99.90;;;;;;5124230;27;20064;-62
2024/03/03 04:38:11;;;;;;;14.23;9.05;;;9.10;99.90;;;;;;5121980;27;20192;-62
2024/03/03 04:40:37;;;;;;;11.75;9.02;;;9.00;99.90;;;;;;5120008;27;20047;-62
2024/03/03 04:43:03;;;;;;;13.20;9.30;;;8.90;99.90;;;;;;5119585;27;20031;-62
2024/03/03 04:45:29;;;;;;;13.68;9.27;;;8.90;99.90;;;;;;5113250;27;20075;-63
2024/03/03 04:47:55;;;;;;;10.70;8.73;;;8.80;99.90;;;;;;5125095;27;20062;-62
2024/03/03 04:50:21;;;;;;;14.35;9.10;;;8.70;99.90;;;;;;5117693;27;20558;-62
2024/03/03 04:52:47;;;;;;;12.00;9.05;;;8.70;99.90;;;;;;5117067;27;20053;-62
2024/03/03 04:55:13;;;;;;;13.00;9.57;;;8.60;99.90;;;;;;5121893;27;20035;-62
2024/03/03 04:57:39;;;;;;;13.55;9.63;;;8.60;99.90;;;;;;5122596;27;20050;-63
2024/03/03 05:00:08;;;;;;;13.05;9.60;;;8.60;99.90;;;;;;5117025;28;20070;-62
2024/03/03 05:02:35;;;;;;;13.85;9.98;;;8.50;99.90;;;;;;5118479;27;20118;-62
2024/03/03 05:05:00;;;;;;;12.23;9.20;;;8.50;99.90;;;;;;5109136;28;20040;-62
2024/03/03 05:07:27;;;;;;;14.60;10.25;;;8.50;99.90;;;;;;5115504;28;20039;-62
2024/03/03 05:09:53;;;;;;;11.70;9.77;;;8.40;99.90;;;;;;5110364;28;20909;-63
2024/03/03 05:12:19;;;;;;;14.80;10.23;;;8.40;99.90;;;;;;5110161;27;20108;-62
2024/03/03 05:14:45;;;;;;;14.00;9.90;;;8.40;99.90;;;;;;5114490;28;20216;-62
2024/03/03 05:17:11;;;;;;;16.88;10.27;;;8.30;99.90;;;;;;5118831;27;20130;-63
2024/03/03 05:19:36;;;;;;;16.23;10.82;;;8.30;99.90;;;;;;5120240;27;20053;-62
2024/03/03 05:22:02;;;;;;;15.00;10.75;;;8.30;99.90;;;;;;5119059;28;20379;-62
2024/03/03 05:24:29;;;;;;;15.52;11.20;;;8.20;99.90;;;;;;5113423;28;22013;-63
2024/03/03 05:26:55;;;;;;;17.35;12.00;;;8.20;99.90;;;;;;5118262;27;20043;-62
2024/03/03 05:29:21;;;;;;;17.45;12.18;;;8.20;99.90;;;;;;5110408;28;20042;-62
2024/03/03 05:31:47;;;;;;;16.98;11.63;;;8.20;99.90;;;;;;5120348;27;20687;-63
2024/03/03 05:34:13;;;;;;;22.73;12.88;;;8.20;99.90;;;;;;5120497;27;20143;-62
2024/03/03 05:36:40;;;;;;;17.83;11.90;;;8.20;99.90;;;;;;5121208;27;20107;-62
2024/03/03 05:39:06;;;;;;;16.05;12.27;;;8.30;99.90;;;;;;5111431;28;20599;-62
2024/03/03 05:41:32;;;;;;;19.92;12.07;;;8.20;99.90;;;;;;5111113;27;20527;-62
2024/03/03 05:43:59;;;;;;;18.35;12.93;;;8.30;99.90;;;;;;5117791;27;20146;-62
2024/03/03 05:46:24;;;;;;;16.98;12.45;;;8.30;99.90;;;;;;5117435;27;20497;-62
2024/03/03 05:48:50;;;;;;;19.63;12.48;;;8.30;99.90;;;;;;5126390;27;20031;-62
2024/03/03 05:51:18;;;;;;;21.85;14.23;;;8.20;99.90;;;;;;5118621;27;20420;-62
2024/03/03 05:53:45;;;;;;;23.52;13.32;;;8.20;99.90;;;;;;5123797;27;20622;-62
2024/03/03 05:56:17;;;;;;;19.25;13.73;;;8.20;99.90;;;;;;5121830;27;20536;-61
2024/03/03 05:58:43;;;;;;;25.00;13.52;;;8.10;99.90;;;;;;5131657;27;20144;-62
2024/03/03 06:01:09;;;;;;;20.40;14.45;;;8.10;99.90;;;;;;5129585;27;20174;-62
2024/03/03 06:03:36;;;;;;;20.10;14.43;;;8.10;99.90;;;;;;5129561;27;20419;-61
2024/03/03 06:06:02;;;;;;;19.20;13.40;;;8.10;99.90;;;;;;5130240;27;20054;-62
2024/03/03 06:08:28;;;;;;;20.75;14.35;;;8.10;99.90;;;;;;5130294;27;20046;-62
2024/03/03 06:10:54;;;;;;;21.13;14.95;;;8.10;99.90;;;;;;5131013;27;20493;-62
2024/03/03 06:13:20;;;;;;;21.15;14.73;;;8.10;99.90;;;;;;5129754;27;20083;-62
2024/03/03 06:15:49;;;;;;;23.42;15.55;;;8.10;99.90;;;;;;5130052;27;20095;-62
2024/03/03 06:18:15;;;;;;;21.52;14.23;;;8.00;99.90;;;;;;5130414;27;20066;-62
2024/03/03 06:20:41;;;;;;;21.88;15.38;;;8.00;99.90;;;;;;5127459;27;20122;-62
2024/03/03 06:23:07;;;;;;;18.77;13.95;;;8.00;99.90;;;;;;5129469;27;20038;-62
2024/03/03 06:25:33;;;;;;;21.67;14.95;;;8.00;99.90;;;;;;5129278;27;20078;-62
2024/03/03 06:27:59;;;;;;;23.77;16.20;;;8.00;99.90;;;;;;5131066;27;20031;-62
2024/03/03 06:30:24;;;;;;;22.58;15.90;;;8.00;99.90;;;;;;5129411;27;20094;-62
2024/03/03 06:32:50;;;;;;;26.73;15.95;;;8.00;99.90;;;;;;5128644;27;20176;-62
2024/03/03 06:35:17;;;;;;;21.65;15.30;;;8.00;99.90;;;;;;5128069;27;20039;-61
2024/03/03 06:37:44;;;;;;;22.80;16.13;;;8.00;99.90;;;;;;5128964;27;20084;-62
2024/03/03 06:40:10;;;;;;;21.60;15.30;;;8.00;99.90;;;;;;5130265;27;20134;-62
2024/03/03 06:42:41;;;;;;;24.77;16.00;;;8.00;99.90;;;;;;5130049;27;20108;-62
2024/03/03 06:45:07;;;;;;;27.00;16.83;;;8.00;99.90;;;;;;5130041;27;20046;-62
2024/03/03 06:47:33;;;;;;;30.65;16.80;;;8.00;99.90;;;;;;5127588;27;20531;-62
2024/03/03 06:49:59;;;;;;;25.63;17.27;;;8.00;99.90;;;;;;5129888;27;20042;-62
2024/03/03 06:52:31;;;;;;;26.00;15.63;;;8.00;99.90;;;;;;5127904;27;20123;-62
2024/03/03 06:54:58;;;;;;;25.60;16.73;;;8.10;99.90;;;;;;5131211;27;20663;-62
2024/03/03 06:57:24;;;;;;;25.30;17.52;;;8.10;99.90;;;;;;5131019;27;20554;-62
2024/03/03 06:59:51;;;;;;;24.15;17.35;;;8.10;99.90;;;;;;5131186;27;20066;-62
2024/03/03 07:02:17;;;;;;;26.15;17.02;;;8.10;99.90;;;;;;5130242;27;20039;-62
2024/03/03 07:04:43;;;;;;;27.55;16.40;;;8.10;99.90;;;;;;5131063;27;20053;-64
2024/03/03 07:07:09;;;;;;;22.85;16.23;;;8.10;99.90;;;;;;5127664;27;20038;-62
2024/03/03 07:09:36;;;;;;;25.45;16.42;;;8.10;99.90;;;;;;5128973;27;20043;-62
2024/03/03 07:12:03;;;;;;;24.05;17.08;;;8.20;99.90;;;;;;5129415;27;20050;-62
2024/03/03 07:14:31;;;;;;;24.25;16.90;;;8.20;99.90;;;;;;5130328;27;20035;-62
2024/03/03 07:16:56;;;;;;;28.77;17.75;;;8.20;99.90;;;;;;5111737;27;20045;-62
2024/03/03 07:19:22;;;;;;;23.20;16.67;;;8.30;99.90;;;;;;5130452;27;20042;-62
2024/03/03 07:21:48;;;;;;;25.98;16.98;;;8.40;99.90;;;;;;5130279;27;20039;-62
2024/03/03 07:24:15;;;;;;;26.98;17.52;;;8.50;99.90;;;;;;5129289;27;20031;-62
2024/03/03 07:26:40;;;;;;;25.05;16.83;;;8.60;99.90;;;;;;5128312;27;20050;-62
2024/03/03 07:29:07;;;;;;;22.70;16.83;;;8.70;99.90;;;;;;5129293;27;20087;-62
2024/03/03 07:31:35;;;;;;;27.55;16.98;;;8.80;99.90;;;;;;5129424;27;20095;-62
2024/03/03 07:34:01;;;;;;;28.48;17.48;;;8.90;99.90;;;;;;5127137;27;20043;-62
2024/03/03 07:36:26;;;;;;;24.77;17.48;;;9.10;99.90;;;;;;5128754;27;20050;-62
2024/03/03 07:38:53;;;;;;;22.90;16.20;;;9.30;99.90;;;;;;5126275;27;20569;-62
2024/03/03 07:41:19;;;;;;;28.67;17.23;;;9.50;99.90;;;;;;5130646;27;20034;-62
2024/03/03 07:43:46;;;;;;;22.83;15.57;;;9.60;99.90;;;;;;5128436;27;20116;-62
2024/03/03 07:46:11;;;;;;;22.27;15.63;;;9.90;99.90;;;;;;5128812;27;20161;-62
2024/03/03 07:48:37;;;;;;;23.85;15.82;;;10.10;99.90;;;;;;5124746;27;20035;-62
2024/03/03 07:51:03;;;;;;;25.75;15.95;;;10.40;99.90;;;;;;5129846;27;20042;-62
2024/03/03 07:53:31;;;;;;;18.23;14.70;;;10.70;99.90;;;;;;5128319;27;20056;-62
2024/03/03 07:55:57;;;;;;;22.90;15.35;;;10.80;99.90;;;;;;5123521;27;20097;-62
2024/03/03 07:58:22;;;;;;;22.42;15.25;;;11.00;99.90;;;;;;5130024;27;20039;-62
2024/03/03 08:00:48;;;;;;;22.75;15.52;;;11.00;99.90;;;;;;5127352;27;20352;-62
2024/03/03 08:03:14;;;;;;;25.08;16.13;;;11.20;99.90;;;;;;5126565;27;20394;-62
2024/03/03 08:05:40;;;;;;;19.88;14.60;;;11.30;99.90;;;;;;5128888;27;20046;-62
2024/03/03 08:08:06;;;;;;;21.60;13.85;;;11.40;99.90;;;;;;5129630;27;20396;-62
2024/03/03 08:10:33;;;;;;;19.80;15.07;;;11.50;99.90;;;;;;5128577;27;20607;-62
2024/03/03 08:12:59;;;;;;;19.17;14.63;;;11.60;99.90;;;;;;5126125;27;20053;-62
2024/03/03 08:15:25;;;;;;;20.60;14.13;;;11.60;99.90;;;;;;5128510;27;20030;-62
2024/03/03 08:17:51;;;;;;;24.30;16.15;;;11.60;99.90;;;;;;5128507;27;20485;-62
2024/03/03 08:20:17;;;;;;;19.85;14.75;;;11.80;99.90;;;;;;5127850;27;20202;-61
2024/03/03 08:22:43;;;;;;;17.95;14.00;;;12.10;99.90;;;;;;5128074;27;20152;-62
2024/03/03 08:25:12;;;;;;;18.52;13.82;;;12.30;99.90;;;;;;5126534;27;20057;-62
2024/03/03 08:27:39;;;;;;;18.45;13.48;;;12.40;99.90;;;;;;5127747;27;20058;-62
2024/03/03 08:30:06;;;;;;;19.88;14.20;;;12.50;99.90;;;;;;5128919;27;20047;-62
2024/03/03 08:32:33;;;;;;;18.30;13.40;;;12.40;99.90;;;;;;5127990;27;20031;-62
2024/03/03 08:34:59;;;;;;;21.23;14.00;;;12.40;99.90;;;;;;5126286;27;20401;-62
2024/03/03 08:37:25;;;;;;;19.20;13.63;;;12.20;99.90;;;;;;5126435;27;20070;-62
2024/03/03 08:39:52;;;;;;;20.98;13.90;;;12.20;99.90;;;;;;5126122;27;20061;-62
2024/03/03 08:42:17;;;;;;;19.10;14.18;;;12.40;99.90;;;;;;5127007;27;20469;-62
2024/03/03 08:44:43;;;;;;;20.23;14.55;;;12.30;99.90;;;;;;5129405;27;20050;-62
2024/03/03 08:47:09;;;;;;;19.80;14.35;;;12.60;99.90;;;;;;5123887;27;20115;-62
2024/03/03 08:49:35;;;;;;;19.40;14.25;;;12.70;99.90;;;;;;5128596;27;20041;-61
2024/03/03 08:52:02;;;;;;;16.92;13.52;;;12.80;99.90;;;;;;5122415;27;20034;-61
2024/03/03 08:54:29;;;;;;;18.00;13.30;;;12.70;99.90;;;;;;5126713;27;20511;-61
2024/03/03 08:56:56;;;;;;;17.10;13.07;;;12.60;99.90;;;;;;5126648;27;20066;-62
2024/03/03 08:59:22;;;;;;;22.50;13.98;;;12.70;99.90;;;;;;5124113;27;20043;-62
2024/03/03 09:01:48;;;;;;;18.80;13.75;;;12.90;99.90;;;;;;5128353;27;20049;-62
2024/03/03 09:04:14;;;;;;;19.42;13.88;;;12.90;99.90;;;;;;5126059;27;20052;-62
2024/03/03 09:06:40;;;;;;;20.67;13.20;;;13.10;99.90;;;;;;5124634;27;20035;-62
2024/03/03 09:09:06;;;;;;;17.15;14.20;;;13.20;99.90;;;;;;5128287;27;20228;-63
2024/03/03 09:11:32;;;;;;;17.55;12.77;;;13.30;99.90;;;;;;5127170;27;20046;-61
2024/03/03 09:13:59;;;;;;;16.63;13.85;;;13.50;99.90;;;;;;5126439;27;20039;-62
2024/03/03 09:16:25;;;;;;;20.65;14.95;;;13.90;99.90;;;;;;5127392;27;20061;-62
2024/03/03 09:18:53;;;;;;;17.42;13.80;;;14.00;99.90;;;;;;5131971;27;20035;-62
2024/03/03 09:21:22;;;;;;;15.70;12.98;;;14.10;99.90;;;;;;5132418;27;20075;-62
2024/03/03 09:23:48;;;;;;;16.95;13.82;;;14.20;99.90;;;;;;5128185;27;20101;-62
2024/03/03 09:26:14;;;;;;;18.10;14.15;;;14.10;99.90;;;;;;5131378;27;20070;-61
2024/03/03 09:28:43;;;;;;;18.95;13.95;;;14.20;99.90;;;;;;5132324;27;20033;-61
2024/03/03 09:31:09;;;;;;;;;;;14.10;99.90;;;;;;5130535;27;20443;-62
2024/03/03 09:33:35;;;;;;;15.85;12.07;;;14.20;99.90;;;;;;5131004;27;20177;-62
2024/03/03 09:36:01;;;;;;;19.45;13.02;;;14.20;99.90;;;;;;5130429;27;20119;-62
2024/03/03 09:38:26;;;;;;;19.65;12.52;;;14.40;99.90;;;;;;5128082;27;20042;-62
2024/03/03 09:40:52;;;;;;;18.48;13.27;;;14.40;99.90;;;;;;5128279;27;20662;-62
2024/03/03 09:43:22;;;;;;;16.50;12.85;;;14.40;99.90;;;;;;5129444;27;20040;-62
2024/03/03 09:45:50;;;;;;;15.25;11.98;;;14.50;99.90;;;;;;5132182;27;20039;-61
2024/03/03 09:48:16;;;;;;;17.13;12.23;;;14.50;99.90;;;;;;5127028;27;20042;-62
2024/03/03 09:50:43;;;;;;;16.73;12.05;;;14.50;99.90;;;;;;5127582;27;20031;-61
2024/03/03 09:53:09;;;;;;;16.35;12.20;;;14.30;99.90;;;;;;5131930;27;20131;-62
2024/03/03 09:55:40;;;;;;;17.90;11.63;;;14.10;99.90;;;;;;5129127;27;20206;-62
2024/03/03 09:58:09;;;;;;;17.60;12.45;;;14.20;99.90;;;;;;5125716;27;20046;-62
2024/03/03 10:00:35;;;;;;;18.83;12.23;;;14.10;99.90;;;;;;5123501;27;20095;-62
2024/03/03 10:03:03;;;;;;;15.48;11.65;;;14.00;99.90;;;;;;5121500;27;20043;-63
2024/03/03 10:05:31;;;;;;;17.40;13.10;;;13.80;99.90;;;;;;5122908;27;20419;-62
2024/03/03 10:08:01;;;;;;;18.92;12.70;;;13.80;99.90;;;;;;5123938;27;20042;-61
2024/03/03 10:10:31;;;;;;;19.30;13.38;;;13.60;99.90;;;;;;5130115;27;20489;-63
2024/03/03 10:12:59;;;;;;;16.08;12.40;;;13.50;99.90;;;;;;5129136;27;20043;-62
2024/03/03 10:15:25;;;;;;;18.10;12.53;;;13.30;99.90;;;;;;5128934;27;20035;-62
2024/03/03 10:17:51;;;;;;;14.40;12.23;;;13.20;99.90;;;;;;5130539;27;20038;-62
2024/03/03 10:20:17;;;;;;;16.40;11.95;;;13.20;99.90;;;;;;5127301;27;20039;-62
2024/03/03 10:22:45;;;;;;;15.45;12.60;;;13.10;99.90;;;;;;5128608;27;20417;-61
2024/03/03 10:25:15;;;;;;;16.08;12.65;;;13.10;99.90;;;;;;5128289;27;20550;-62
2024/03/03 10:27:45;;;;;;;16.75;12.43;;;13.20;99.90;;;;;;5126446;27;20035;-62
2024/03/03 10:30:14;;;;;;;16.88;12.10;;;13.10;99.90;;;;;;5130197;27;20489;-61
2024/03/03 10:32:44;;;;;;;17.25;12.60;;;13.20;99.90;;;;;;5129483;27;20035;-62
2024/03/03 10:35:11;;;;;;;17.65;13.55;;;13.20;99.90;;;;;;5121418;27;20877;-62
2024/03/03 10:37:54;;;;;;;18.63;12.68;;;13.30;99.90;;;;;;5121475;27;20047;-61
2024/03/03 10:40:22;;;;;;;20.60;13.00;;;13.30;99.90;;;;;;5122811;27;20526;-64
2024/03/03 10:42:48;;;;;;;19.05;13.05;;;13.40;99.90;;;;;;5118851;27;21441;-63
2024/03/03 10:45:14;;;;;;;17.17;13.38;;;13.50;99.90;;;;;;5116764;27;20074;-63
2024/03/03 10:47:41;;;;;;;18.58;14.10;;;13.60;99.90;;;;;;5108321;27;20049;-63
2024/03/03 10:50:10;;;;;;;14.95;12.70;;;13.50;99.90;;;;;;5115086;27;20562;-63
2024/03/03 10:52:39;;;;;;;20.55;14.15;;;13.60;99.90;;;;;;5128203;27;20051;-63
2024/03/03 10:55:08;;;;;;;16.55;12.82;;;13.80;99.90;;;;;;5129450;27;20080;-62
2024/03/03 10:57:35;;;;;;;20.67;14.43;;;13.80;99.90;;;;;;5127352;27;20046;-63
2024/03/03 11:00:06;;;;;;;15.95;13.32;;;13.90;99.90;;;;;;5124709;27;20038;-63
2024/03/03 11:02:35;;;;;;;20.73;13.88;;;14.00;99.90;;;;;;5127080;27;20071;-63
2024/03/03 11:05:01;;;;;;;17.35;12.75;;;14.10;99.90;;;;;;5128371;27;20039;-63
2024/03/03 11:07:30;;;;;;;16.75;13.02;;;14.30;99.90;;;;;;5128086;27;20059;-63
2024/03/03 11:09:57;;;;;;;18.52;13.45;;;14.50;99.90;;;;;;5126697;27;20387;-61
2024/03/03 11:12:27;;;;;;;17.70;13.23;;;14.70;99.90;;;;;;5129155;27;20517;-62
2024/03/03 11:14:56;;;;;;;19.70;13.95;;;15.00;99.90;;;;;;5130029;27;20461;-62
2024/03/03 11:17:27;;;;;;;19.38;13.07;;;15.20;99.90;;;;;;5127526;27;20587;-61
2024/03/03 11:19:56;;;;;;;16.67;12.60;;;15.30;99.90;;;;;;5144939;27;20082;-62
2024/03/03 11:22:25;;;;;;;20.23;14.30;;;15.30;99.90;;;;;;5112595;27;20046;-61
2024/03/03 11:25:08;;;;;;;18.90;14.20;;;15.20;99.90;;;;;;5107350;27;20043;-62
2024/03/03 11:27:37;;;;;;;17.80;13.57;;;15.30;99.90;;;;;;5105727;27;20867;-61
2024/03/03 11:30:05;;;;;;;21.73;14.02;;;15.40;99.90;;;;;;5114857;27;20043;-62
2024/03/03 11:32:33;;;;;;;18.48;14.55;;;15.60;99.90;;;;;;5103736;27;20464;-62
2024/03/03 11:35:00;;;;;;;19.00;14.00;;;15.80;99.90;;;;;;5105520;27;20042;-62
2024/03/03 11:37:27;;;;;;;18.58;13.70;;;16.20;99.90;;;;;;5109997;27;20125;-62
2024/03/03 11:39:59;;;;;;;17.08;13.40;;;16.30;99.90;;;;;;5109426;27;20122;-61
2024/03/03 11:42:33;;;;;;;17.42;13.27;;;16.50;99.90;;;;;;5111875;27;20050;-63
2024/03/03 11:45:00;;;;;;;18.40;13.40;;;16.50;99.90;;;;;;5112878;27;20545;-62
2024/03/03 11:47:33;;;;;;;16.77;12.50;;;16.70;99.90;;;;;;5116532;27;20035;-63
2024/03/03 11:49:59;;;;;;;13.95;11.93;;;16.70;99.90;;;;;;5120749;27;20595;-61
2024/03/03 11:52:42;;;;;;;18.80;13.23;;;17.00;99.90;;;;;;5119235;27;20035;-61
2024/03/03 11:55:32;;;;;;;17.77;13.68;;;17.40;99.90;;;;;;5125202;27;20053;-62
2024/03/03 11:58:02;;;;;;;17.38;13.48;;;17.60;99.90;;;;;;5119106;27;20634;-62
2024/03/03 12:00:30;;;;;;;17.40;13.55;;;17.70;99.90;;;;;;5114499;27;20175;-62
2024/03/03 12:02:58;;;;;;;16.83;12.87;;;17.90;99.90;;;;;;5111326;27;20042;-62
2024/03/03 12:05:25;;;;;;;22.07;13.63;;;18.10;99.90;;;;;;5119793;27;20035;-61
2024/03/03 12:07:52;;;;;;;20.70;12.65;;;18.10;99.90;;;;;;5122850;27;20752;-61
2024/03/03 12:10:20;;;;;;;17.98;13.18;;;18.10;99.90;;;;;;5124203;27;20107;-62
2024/03/03 12:12:50;;;;;;;19.42;13.15;;;18.30;99.90;;;;;;5126060;27;20056;-62
2024/03/03 12:15:17;;;;;;;16.48;13.63;;;18.10;99.90;;;;;;5126285;27;20328;-62
2024/03/03 12:17:47;;;;;;;17.63;13.32;;;18.30;99.90;;;;;;5126908;27;20400;-62
2024/03/03 12:20:17;;;;;;;16.63;13.52;;;18.20;99.90;;;;;;5128577;27;20118;-62
2024/03/03 12:22:45;;;;;;;18.17;14.80;;;17.90;99.90;;;;;;5119949;27;20607;-61
2024/03/03 12:25:11;;;;;;;19.90;14.27;;;18.00;99.90;;;;;;5124904;27;20150;-62
2024/03/03 12:27:38;;;;;;;20.52;15.32;;;18.20;99.90;;;;;;5123271;27;20097;-62
2024/03/03 12:30:11;;;;;;;23.15;14.90;;;18.10;99.90;;;;;;5124817;27;20038;-63
2024/03/03 12:32:37;;;;;;;21.00;16.15;;;18.10;99.90;;;;;;5115128;27;20528;-63
2024/03/03 12:35:03;;;;;;;21.00;15.23;;;18.10;99.90;;;;;;5116714;27;20127;-63